Time;durP1;ratioP1;P1;durP2;ratioP2;P2;SDS_P1;SDS_P2;PMS_P1;PMS_P2;Temp;Humidity;BMP_temperature;BMP_pressure;BME280_temperature;BME280_humidity;BME280_pressure;Samples;Min_cycle;Max_cycle;Signal;HPM_P1;HPM_P2
2023/05/15 00:00:09;;;;;;;7.82;5.82;;;14.30;99.90;;;;;;4966986;28;20114;-73
2023/05/15 00:02:43;;;;;;;10.20;5.43;;;14.30;99.90;;;;;;4969825;28;20082;-72
2023/05/15 00:05:48;;;;;;;7.80;5.88;;;14.40;99.90;;;;;;4957754;28;20057;-77
2023/05/15 00:08:32;;;;;;;8.77;5.80;;;14.30;99.90;;;;;;4978698;28;20077;-75
2023/05/15 00:11:11;;;;;;;7.80;4.95;;;14.30;99.90;;;;;;4979563;28;20057;-75
2023/05/15 00:13:40;;;;;;;9.85;5.55;;;14.10;99.90;;;;;;4962444;28;20053;-72
2023/05/15 00:16:11;;;;;;;8.45;5.13;;;14.10;99.90;;;;;;4965289;28;20094;-74
2023/05/15 00:18:39;;;;;;;7.00;5.13;;;14.10;99.90;;;;;;4974569;28;20078;-73
2023/05/15 00:21:07;;;;;;;8.63;5.40;;;14.10;99.90;;;;;;4957396;29;20051;-76
2023/05/15 00:23:34;;;;;;;8.60;5.18;;;14.00;99.90;;;;;;4973584;28;20055;-76
2023/05/15 00:26:02;;;;;;;6.32;5.00;;;14.00;99.90;;;;;;4971878;28;20062;-73
2023/05/15 00:28:31;;;;;;;7.88;5.25;;;14.00;99.90;;;;;;4953448;28;20058;-74
2023/05/15 00:31:01;;;;;;;8.55;5.43;;;14.00;99.90;;;;;;4965561;28;20047;-74
2023/05/15 00:33:30;;;;;;;8.65;5.00;;;13.90;99.90;;;;;;4945326;29;20415;-74
2023/05/15 00:36:16;;;;;;;7.22;5.70;;;13.90;99.90;;;;;;4949524;28;20047;-74
2023/05/15 00:38:47;;;;;;;9.00;5.60;;;13.90;99.90;;;;;;4963898;28;20051;-77
2023/05/15 00:41:15;;;;;;;6.15;4.97;;;13.90;99.90;;;;;;4978783;28;20051;-76
2023/05/15 00:43:44;;;;;;;8.77;5.70;;;13.90;99.90;;;;;;4962029;28;20062;-76
2023/05/15 00:46:13;;;;;;;7.63;5.82;;;13.90;99.90;;;;;;4965374;28;20102;-78
2023/05/15 00:48:49;;;;;;;7.90;5.43;;;14.00;99.90;;;;;;4966586;28;20054;-74
2023/05/15 00:51:29;;;;;;;8.55;5.55;;;13.90;99.90;;;;;;4965375;28;20057;-77
2023/05/15 00:54:01;;;;;;;8.65;5.78;;;13.90;99.90;;;;;;4949936;28;20051;-77
2023/05/15 00:56:50;;;;;;;9.77;5.60;;;14.00;99.90;;;;;;4969754;28;20569;-74
2023/05/15 00:59:28;;;;;;;9.68;5.88;;;14.00;99.90;;;;;;4980183;28;20065;-78
2023/05/15 01:01:57;;;;;;;;;;;13.90;99.90;;;;;;4982598;28;20059;-78
2023/05/15 01:04:24;;;;;;;8.73;5.85;;;13.90;99.90;;;;;;4952187;28;20028;-77
2023/05/15 01:06:57;;;;;;;8.30;6.28;;;13.90;99.90;;;;;;4951876;29;20059;-74
2023/05/15 01:09:26;;;;;;;9.73;5.88;;;13.90;99.90;;;;;;4981149;28;20059;-76
2023/05/15 01:11:59;;;;;;;8.38;6.30;;;13.90;99.90;;;;;;4987538;28;20054;-72
2023/05/15 01:14:33;;;;;;;7.85;6.28;;;13.90;99.90;;;;;;4972339;28;20065;-76
2023/05/15 01:17:17;;;;;;;9.57;6.28;;;13.90;99.90;;;;;;4967288;28;20055;-78
2023/05/15 01:19:53;;;;;;;8.38;6.22;;;13.90;99.90;;;;;;4990494;28;20059;-73
2023/05/15 01:22:47;;;;;;;9.25;6.68;;;13.80;99.90;;;;;;4970846;28;20058;-77
2023/05/15 01:25:46;;;;;;;11.05;6.75;;;13.80;99.90;;;;;;4995187;28;20052;-74
2023/05/15 01:28:39;;;;;;;7.90;5.97;;;13.80;99.90;;;;;;4973407;28;20475;-78
2023/05/15 01:31:21;;;;;;;8.88;6.45;;;13.80;99.90;;;;;;5001002;23;20100;-74
2023/05/15 01:34:14;;;;;;;13.27;6.57;;;13.80;99.90;;;;;;4949154;29;20451;-81
2023/05/15 01:36:46;;;;;;;11.27;6.35;;;13.70;99.90;;;;;;4975672;28;20051;-81
2023/05/15 01:39:19;;;;;;;8.88;6.43;;;13.50;99.90;;;;;;4945003;29;20047;-78
2023/05/15 01:42:35;;;;;;;11.65;6.80;;;13.60;99.90;;;;;;4930191;29;20072;-72
2023/05/15 01:45:49;;;;;;;10.07;6.72;;;13.60;99.90;;;;;;4942788;29;20055;-75
2023/05/15 01:48:20;;;;;;;9.82;6.60;;;13.70;99.90;;;;;;4938437;29;20051;-72
2023/05/15 01:51:06;;;;;;;12.75;7.00;;;13.70;99.90;;;;;;4967068;29;20062;-77
2023/05/15 01:53:59;;;;;;;7.35;6.20;;;13.40;99.90;;;;;;4950766;29;20082;-81
2023/05/15 01:56:58;;;;;;;9.23;6.20;;;13.30;99.90;;;;;;4918266;29;20056;-81
2023/05/15 01:59:31;;;;;;;10.90;6.65;;;13.50;99.90;;;;;;4920893;29;20061;-79
2023/05/15 02:02:17;;;;;;;9.50;6.60;;;13.60;99.90;;;;;;4936059;29;20123;-78
2023/05/15 02:04:52;;;;;;;9.65;6.38;;;13.60;99.90;;;;;;4934309;29;20048;-73
2023/05/15 02:07:20;;;;;;;10.13;6.95;;;13.50;99.90;;;;;;4957486;28;20067;-82
2023/05/15 02:09:50;;;;;;;9.50;7.10;;;13.40;99.90;;;;;;4951551;29;20496;-74
2023/05/15 02:12:31;;;;;;;10.90;6.65;;;13.60;99.90;;;;;;4950259;28;20094;-76
2023/05/15 02:15:03;;;;;;;10.98;6.65;;;13.50;99.90;;;;;;4935304;29;20061;-76
2023/05/15 02:17:33;;;;;;;10.32;6.35;;;13.40;99.90;;;;;;4944898;29;20063;-72
2023/05/15 02:20:20;;;;;;;9.82;6.38;;;13.50;99.90;;;;;;4946123;28;20070;-77
2023/05/15 02:23:03;;;;;;;8.63;6.63;;;13.70;99.90;;;;;;4946162;28;20090;-78
2023/05/15 02:26:29;;;;;;;12.07;7.03;;;13.90;99.90;;;;;;4959999;29;20086;-73
2023/05/15 02:29:15;;;;;;;10.52;6.30;;;13.90;99.90;;;;;;4944647;29;20055;-78
2023/05/15 02:32:00;;;;;;;10.30;7.05;;;13.90;99.90;;;;;;4961630;28;20055;-75
2023/05/15 02:34:56;;;;;;;7.80;6.38;;;13.90;99.90;;;;;;4950144;29;20091;-78
2023/05/15 02:37:38;;;;;;;10.40;6.63;;;13.90;99.90;;;;;;4968024;29;20059;-76
2023/05/15 02:40:23;;;;;;;9.90;6.28;;;13.90;99.90;;;;;;4953278;29;20067;-80
2023/05/15 02:42:59;;;;;;;9.23;6.30;;;13.90;99.90;;;;;;4950789;28;20074;-72
2023/05/15 02:45:40;;;;;;;10.75;6.40;;;13.70;99.90;;;;;;4965931;29;20200;-76
2023/05/15 02:48:23;;;;;;;8.98;6.63;;;13.70;99.90;;;;;;4967218;29;20055;-78
2023/05/15 02:50:57;;;;;;;9.32;6.97;;;13.70;99.90;;;;;;4948628;28;20122;-73
2023/05/15 02:53:45;;;;;;;10.00;7.55;;;13.90;99.90;;;;;;4962744;29;20090;-80
2023/05/15 02:56:28;;;;;;;20.65;7.50;;;13.90;99.90;;;;;;4968272;29;20053;-73
2023/05/15 02:59:42;;;;;;;12.05;7.95;;;13.70;99.90;;;;;;4953284;29;20059;-80
2023/05/15 03:02:12;;;;;;;10.65;7.30;;;13.70;99.90;;;;;;4962492;29;20045;-79
2023/05/15 03:04:43;;;;;;;9.65;7.10;;;13.60;99.90;;;;;;4950178;29;20052;-78
2023/05/15 03:07:40;;;;;;;15.20;8.02;;;13.70;99.90;;;;;;4964347;29;20472;-77
2023/05/15 03:10:22;;;;;;;9.93;7.85;;;13.80;99.90;;;;;;4960543;29;20075;-81
2023/05/15 03:13:12;;;;;;;12.98;8.00;;;13.90;99.90;;;;;;4942260;29;20083;-79
2023/05/15 03:15:42;;;;;;;11.05;8.27;;;13.90;99.90;;;;;;4967470;28;20059;-77
2023/05/15 03:18:18;;;;;;;13.80;8.52;;;13.90;99.90;;;;;;4935762;29;20060;-72
2023/05/15 03:20:53;;;;;;;10.63;7.82;;;13.90;99.90;;;;;;4936098;29;20098;-74
2023/05/15 03:23:26;;;;;;;11.52;7.78;;;13.90;99.90;;;;;;4956902;29;20067;-72
2023/05/15 03:25:57;;;;;;;11.57;8.68;;;14.00;99.90;;;;;;4936868;29;20062;-77
2023/05/15 03:28:25;;;;;;;11.45;8.38;;;14.00;99.90;;;;;;4955335;28;20050;-79
2023/05/15 03:30:55;;;;;;;11.40;7.68;;;14.00;99.90;;;;;;4971982;28;20063;-80
2023/05/15 03:33:38;;;;;;;9.63;7.70;;;14.00;99.90;;;;;;4953464;28;20061;-77
2023/05/15 03:36:21;;;;;;;10.20;7.50;;;13.90;99.90;;;;;;4988364;28;20124;-76
2023/05/15 03:38:53;;;;;;;11.95;7.78;;;13.90;99.90;;;;;;4964567;28;20126;-78
2023/05/15 03:41:22;;;;;;;13.77;8.03;;;14.00;99.90;;;;;;4939746;28;20059;-76
2023/05/15 03:43:51;;;;;;;10.32;7.70;;;14.00;99.90;;;;;;4950805;28;20292;-74
2023/05/15 03:46:33;;;;;;;11.27;7.88;;;14.00;99.90;;;;;;4968340;28;20054;-81
2023/05/15 03:49:05;;;;;;;12.35;8.07;;;14.00;99.90;;;;;;4948844;28;20050;-75
2023/05/15 03:51:40;;;;;;;14.80;7.47;;;14.00;99.90;;;;;;4967499;28;20105;-74
2023/05/15 03:54:46;;;;;;;13.05;7.55;;;14.00;99.90;;;;;;4957042;28;20087;-81
2023/05/15 03:57:34;;;;;;;11.25;7.55;;;13.90;99.90;;;;;;4940994;28;20059;-76
2023/05/15 04:00:09;;;;;;;12.82;8.27;;;13.70;99.90;;;;;;4965867;28;20058;-80
2023/05/15 04:02:47;;;;;;;10.98;8.10;;;13.90;99.90;;;;;;4952021;28;20058;-73
2023/05/15 04:05:31;;;;;;;9.18;7.38;;;14.00;99.90;;;;;;4936846;28;20047;-79
2023/05/15 04:08:17;;;;;;;11.98;6.97;;;14.00;99.90;;;;;;4983179;23;20050;-78
2023/05/15 04:10:56;;;;;;;10.68;7.05;;;14.00;99.90;;;;;;4965869;28;20116;-77
2023/05/15 04:13:24;;;;;;;10.30;7.10;;;14.10;99.90;;;;;;4993450;28;20069;-79
2023/05/15 04:15:53;;;;;;;9.55;6.55;;;14.00;99.90;;;;;;4981444;28;20055;-78
2023/05/15 04:18:25;;;;;;;9.38;6.38;;;14.10;99.90;;;;;;5003646;23;20060;-75
2023/05/15 04:20:59;;;;;;;11.75;6.97;;;14.10;99.90;;;;;;4981876;28;20101;-78
2023/05/15 04:23:28;;;;;;;11.43;7.07;;;14.10;99.90;;;;;;4983660;28;20050;-74
2023/05/15 04:29:09;;;;;;;13.02;7.78;;;14.20;99.90;;;;;;4976543;28;20479;-74
2023/05/15 04:31:51;;;;;;;12.38;7.95;;;14.10;99.90;;;;;;4995581;28;20050;-76
2023/05/15 04:34:19;;;;;;;12.88;7.25;;;14.20;99.90;;;;;;4980102;28;20073;-76
2023/05/15 04:36:52;;;;;;;12.95;7.43;;;14.10;99.90;;;;;;4997680;28;20058;-76
2023/05/15 04:39:25;;;;;;;11.48;7.65;;;14.10;99.90;;;;;;4982932;28;20049;-74
2023/05/15 04:42:04;;;;;;;11.57;6.63;;;14.20;99.90;;;;;;5003429;28;20062;-75
2023/05/15 04:44:47;;;;;;;20.63;13.52;;;14.20;99.90;;;;;;4981103;28;20061;-83
2023/05/15 04:47:25;;;;;;;25.73;17.27;;;14.30;99.90;;;;;;4975984;28;20050;-74
2023/05/15 04:50:14;;;;;;;18.95;11.73;;;14.40;99.90;;;;;;4979733;28;20051;-72
2023/05/15 04:52:59;;;;;;;11.88;7.22;;;14.30;99.90;;;;;;4991023;28;20039;-72
2023/05/15 04:55:50;;;;;;;9.00;6.50;;;14.30;99.90;;;;;;4990988;28;20064;-76
2023/05/15 04:58:18;;;;;;;11.18;6.88;;;14.40;99.90;;;;;;4977634;28;20413;-72
2023/05/15 05:00:46;;;;;;;9.88;6.72;;;14.30;99.90;;;;;;4992029;28;20049;-73
2023/05/15 05:03:21;;;;;;;9.43;7.00;;;14.40;99.90;;;;;;4998670;28;20046;-79
2023/05/15 05:06:10;;;;;;;69.13;45.60;;;14.60;99.90;;;;;;5001561;28;20041;-75
2023/05/15 05:08:37;;;;;;;39.47;28.63;;;14.80;99.90;;;;;;4981876;28;20058;-77
2023/05/15 05:11:06;;;;;;;30.58;22.20;;;14.80;99.90;;;;;;5001183;28;20062;-79
2023/05/15 05:13:36;;;;;;;48.40;29.23;;;15.10;99.90;;;;;;5005790;28;20054;-75
2023/05/15 05:16:24;;;;;;;;;;;15.20;99.90;;;;;;4959574;28;20046;-79
2023/05/15 05:18:56;;;;;;;16.20;10.68;;;15.10;99.90;;;;;;4969325;28;19922;-75
2023/05/15 05:21:31;;;;;;;11.10;6.80;;;14.80;99.90;;;;;;4968888;28;20051;-74
2023/05/15 05:24:07;;;;;;;11.48;6.88;;;14.50;99.90;;;;;;4957598;28;20188;-74
2023/05/15 05:26:42;;;;;;;14.15;6.90;;;14.60;99.90;;;;;;4972909;28;20054;-77
2023/05/15 05:29:09;;;;;;;11.25;7.05;;;14.90;99.90;;;;;;4953617;29;20082;-76
2023/05/15 05:32:07;;;;;;;12.38;9.15;;;15.20;99.90;;;;;;4988235;28;20191;-81
2023/05/15 05:34:54;;;;;;;12.98;7.80;;;15.10;99.90;;;;;;4990814;28;20078;-82
2023/05/15 05:37:42;;;;;;;12.07;7.65;;;15.30;99.90;;;;;;4989962;28;20054;-75
2023/05/15 05:40:36;;;;;;;11.98;8.00;;;15.40;99.90;;;;;;4978758;28;20046;-76
2023/05/15 05:43:09;;;;;;;17.48;11.82;;;15.50;99.90;;;;;;4958280;29;20053;-78
2023/05/15 05:45:37;;;;;;;57.63;37.97;;;15.60;99.90;;;;;;4946833;28;20078;-77
2023/05/15 05:48:05;;;;;;;20.25;14.52;;;15.60;99.90;;;;;;4997346;28;20050;-75
2023/05/15 05:50:33;;;;;;;12.63;9.32;;;15.70;99.90;;;;;;4977073;28;20050;-73
2023/05/15 05:53:00;;;;;;;8.27;6.38;;;15.60;99.90;;;;;;4977369;28;20087;-74
2023/05/15 05:55:36;;;;;;;9.63;6.50;;;15.50;99.90;;;;;;4999121;28;20050;-73
2023/05/15 05:58:16;;;;;;;10.48;6.47;;;15.40;99.90;;;;;;4983976;28;20311;-78
2023/05/15 06:01:01;;;;;;;10.00;6.75;;;15.30;99.90;;;;;;5001083;28;20482;-74
2023/05/15 06:03:48;;;;;;;14.45;6.75;;;15.20;99.90;;;;;;4976450;28;20050;-73
2023/05/15 06:06:41;;;;;;;9.63;6.65;;;15.30;99.90;;;;;;5000761;28;20061;-76
2023/05/15 06:09:11;;;;;;;9.65;6.00;;;15.30;99.90;;;;;;4982891;28;20051;-74
2023/05/15 06:11:59;;;;;;;12.63;6.35;;;15.40;99.90;;;;;;5002920;28;20454;-74
2023/05/15 06:14:34;;;;;;;11.15;6.68;;;15.00;99.90;;;;;;4987387;28;20055;-76
2023/05/15 06:17:05;;;;;;;14.30;7.20;;;15.00;99.90;;;;;;5000720;28;20112;-75
2023/05/15 06:19:32;;;;;;;9.80;5.95;;;14.70;99.90;;;;;;4986248;28;20085;-75
2023/05/15 06:21:59;;;;;;;10.70;6.45;;;15.00;99.90;;;;;;5000222;28;20133;-76
2023/05/15 06:24:27;;;;;;;10.88;6.60;;;15.30;99.90;;;;;;4983786;28;20464;-74
2023/05/15 06:26:55;;;;;;;12.20;7.22;;;15.10;99.90;;;;;;5006075;28;20052;-76
2023/05/15 06:29:27;;;;;;;9.57;6.38;;;15.00;99.90;;;;;;5015292;28;20056;-74
2023/05/15 06:32:04;;;;;;;8.60;6.30;;;15.10;99.90;;;;;;4999141;28;20057;-73
2023/05/15 06:34:56;;;;;;;11.15;7.53;;;15.50;99.90;;;;;;4981029;28;20033;-73
2023/05/15 06:37:27;;;;;;;11.77;7.30;;;15.70;99.90;;;;;;5015854;28;20463;-74
2023/05/15 06:40:11;;;;;;;10.32;7.15;;;15.80;99.90;;;;;;4980175;28;20145;-72
2023/05/15 06:42:55;;;;;;;13.48;6.47;;;15.70;99.90;;;;;;4978575;28;20051;-73
2023/05/15 06:45:30;;;;;;;11.55;6.78;;;15.80;99.90;;;;;;4996361;28;20072;-73
2023/05/15 06:48:01;;;;;;;14.05;8.50;;;15.90;99.90;;;;;;5003079;28;20058;-75
2023/05/15 06:50:29;;;;;;;10.68;7.25;;;16.20;99.90;;;;;;4986727;28;20077;-73
2023/05/15 06:53:19;;;;;;;11.73;7.38;;;16.30;99.90;;;;;;5002445;28;20046;-76
2023/05/15 06:56:07;;;;;;;13.75;7.13;;;16.10;99.90;;;;;;4983271;28;20054;-77
2023/05/15 06:58:44;;;;;;;11.75;7.10;;;15.70;99.90;;;;;;5001380;28;20054;-76
2023/05/15 07:01:22;;;;;;;14.73;7.75;;;15.70;99.90;;;;;;5001551;28;20759;-75
2023/05/15 07:03:52;;;;;;;12.98;7.43;;;15.90;99.90;;;;;;5017778;28;20060;-75
2023/05/15 07:06:20;;;;;;;14.30;7.25;;;15.80;99.90;;;;;;4999987;28;20038;-73
2023/05/15 07:08:52;;;;;;;11.85;7.07;;;15.40;99.90;;;;;;4983740;28;20080;-76
2023/05/15 07:11:37;;;;;;;12.27;7.28;;;15.40;99.90;;;;;;4999928;28;20049;-75
2023/05/15 07:14:18;;;;;;;15.48;7.45;;;15.60;99.90;;;;;;5008990;23;20042;-74
2023/05/15 07:16:53;;;;;;;12.40;6.47;;;15.80;99.90;;;;;;4982121;28;20096;-76
2023/05/15 07:19:23;;;;;;;13.93;5.97;;;15.90;99.90;;;;;;4982096;28;20057;-75
2023/05/15 07:22:05;;;;;;;8.52;5.07;;;16.00;99.90;;;;;;5002157;28;20096;-73
2023/05/15 07:24:51;;;;;;;11.70;6.13;;;16.10;99.90;;;;;;4999294;28;20441;-74
2023/05/15 07:27:38;;;;;;;13.20;6.68;;;16.20;99.90;;;;;;5032403;28;20057;-77
2023/05/15 07:30:08;;;;;;;12.52;7.60;;;16.10;99.90;;;;;;5000901;28;20097;-73
2023/05/15 07:32:37;;;;;;;11.60;6.82;;;16.40;99.90;;;;;;5020075;28;20060;-74
2023/05/15 07:35:05;;;;;;;11.05;5.63;;;16.60;99.90;;;;;;5024212;28;20041;-75
2023/05/15 07:37:34;;;;;;;9.23;5.47;;;16.70;99.90;;;;;;5023741;28;20076;-75
2023/05/15 07:40:03;;;;;;;9.05;5.72;;;17.00;99.90;;;;;;5003918;28;20114;-76
2023/05/15 07:42:34;;;;;;;8.02;5.60;;;17.00;99.90;;;;;;5017651;28;20124;-77
2023/05/15 07:45:03;;;;;;;8.63;5.32;;;16.70;99.90;;;;;;5022708;28;20052;-75
2023/05/15 07:47:31;;;;;;;9.13;5.35;;;16.50;99.90;;;;;;4992662;28;20104;-76
2023/05/15 07:50:04;;;;;;;12.45;5.40;;;16.70;99.90;;;;;;4998359;28;20057;-75
2023/05/15 07:52:43;;;;;;;7.93;5.00;;;16.90;99.90;;;;;;5010477;28;20045;-76
2023/05/15 07:55:22;;;;;;;10.25;5.45;;;17.20;99.90;;;;;;4992531;28;20100;-74
2023/05/15 07:57:56;;;;;;;9.40;5.28;;;17.20;99.90;;;;;;5008838;28;20050;-75
2023/05/15 08:00:38;;;;;;;8.27;5.50;;;17.10;99.90;;;;;;5025207;28;20073;-75
2023/05/15 08:03:17;;;;;;;7.35;5.35;;;17.00;99.90;;;;;;5016499;28;20076;-74
2023/05/15 08:06:08;;;;;;;11.30;5.65;;;17.30;99.90;;;;;;5011117;28;20052;-75
2023/05/15 08:09:21;;;;;;;9.43;5.70;;;17.20;99.90;;;;;;5010734;28;20061;-75
2023/05/15 08:11:51;;;;;;;11.88;5.75;;;17.30;99.90;;;;;;5039788;28;20046;-73
2023/05/15 08:14:19;;;;;;;11.27;5.90;;;17.50;99.90;;;;;;5031872;28;20556;-77
2023/05/15 08:16:55;;;;;;;7.35;5.35;;;17.70;99.90;;;;;;5017576;28;20478;-80
2023/05/15 08:19:40;;;;;;;;;;;17.70;99.90;;;;;;5003742;28;20073;-78
2023/05/15 08:22:17;;;;;;;9.48;5.60;;;17.60;99.90;;;;;;5029551;28;19944;-79
2023/05/15 08:25:08;;;;;;;8.48;5.43;;;17.90;99.90;;;;;;4994440;28;20048;-75
2023/05/15 08:27:41;;;;;;;11.70;5.95;;;17.90;99.90;;;;;;5018253;28;20121;-76
2023/05/15 08:30:10;;;;;;;10.38;6.30;;;17.90;99.90;;;;;;5040490;28;20145;-74
2023/05/15 08:32:38;;;;;;;9.52;6.13;;;18.00;99.90;;;;;;4988029;28;20112;-75
2023/05/15 08:35:07;;;;;;;13.77;6.60;;;17.80;99.90;;;;;;5034138;28;20084;-77
2023/05/15 08:37:35;;;;;;;14.25;6.88;;;18.10;99.90;;;;;;5037070;28;20120;-77
2023/05/15 08:40:06;;;;;;;8.38;5.47;;;18.10;99.90;;;;;;5017995;28;20060;-74
2023/05/15 08:42:47;;;;;;;9.73;5.65;;;18.10;99.90;;;;;;4990646;28;20045;-77
2023/05/15 08:45:20;;;;;;;8.80;6.25;;;18.10;99.90;;;;;;5034118;28;20539;-77
2023/05/15 08:47:54;;;;;;;10.10;6.63;;;18.10;99.90;;;;;;5001175;28;20049;-74
2023/05/15 08:50:23;;;;;;;11.32;6.72;;;18.10;99.90;;;;;;5014136;28;20045;-75
2023/05/15 08:52:58;;;;;;;15.45;6.18;;;18.00;99.90;;;;;;4995042;28;20054;-75
2023/05/15 08:55:27;;;;;;;11.88;6.72;;;18.00;99.90;;;;;;5005801;28;20054;-74
2023/05/15 08:57:55;;;;;;;9.88;7.28;;;17.80;99.90;;;;;;5001497;28;20073;-74
2023/05/15 09:00:26;;;;;;;12.85;7.03;;;17.80;99.90;;;;;;5003763;28;20056;-73
2023/05/15 09:02:53;;;;;;;11.27;7.07;;;17.60;99.90;;;;;;5004273;28;20052;-74
2023/05/15 09:05:21;;;;;;;10.82;8.30;;;17.60;99.90;;;;;;5019013;28;20080;-76
2023/05/15 09:07:53;;;;;;;11.10;7.30;;;17.80;99.90;;;;;;5031307;28;20060;-77
2023/05/15 09:10:21;;;;;;;13.00;7.07;;;17.80;99.90;;;;;;5011977;28;20144;-76
2023/05/15 09:12:53;;;;;;;13.43;7.20;;;17.80;99.90;;;;;;4983597;28;20084;-77
2023/05/15 09:15:39;;;;;;;10.85;6.53;;;17.90;99.90;;;;;;5017408;28;20050;-76
2023/05/15 09:18:12;;;;;;;14.25;7.25;;;18.30;99.90;;;;;;5023597;28;20307;-75
2023/05/15 09:20:42;;;;;;;9.27;7.00;;;18.60;99.90;;;;;;5003648;28;20196;-75
2023/05/15 09:23:26;;;;;;;11.25;6.97;;;18.60;99.90;;;;;;5000545;28;20058;-75
2023/05/15 09:25:55;;;;;;;11.03;7.60;;;19.00;99.90;;;;;;5018136;28;20056;-76
2023/05/15 09:28:32;;;;;;;8.38;6.63;;;19.00;99.90;;;;;;5011644;23;20050;-77
2023/05/15 09:31:04;;;;;;;10.35;7.72;;;19.10;99.90;;;;;;5000771;28;20140;-74
2023/05/15 09:33:36;;;;;;;10.52;7.32;;;19.00;99.90;;;;;;4986327;28;20425;-73
2023/05/15 09:36:10;;;;;;;11.25;8.52;;;18.70;99.90;;;;;;5004495;28;20057;-75
2023/05/15 09:38:48;;;;;;;14.50;7.38;;;18.90;99.90;;;;;;4985070;28;20137;-76
2023/05/15 09:41:42;;;;;;;11.82;7.13;;;18.90;99.90;;;;;;4989226;28;20046;-75
2023/05/15 09:44:26;;;;;;;10.93;6.78;;;18.90;99.90;;;;;;5002487;28;20050;-75
2023/05/15 09:46:56;;;;;;;12.50;6.63;;;18.90;99.90;;;;;;4981948;28;20049;-74
2023/05/15 09:49:28;;;;;;;10.13;6.30;;;18.80;99.90;;;;;;5009646;28;20430;-75
2023/05/15 09:52:22;;;;;;;8.85;6.70;;;18.80;99.90;;;;;;4994968;28;20050;-75
2023/05/15 09:55:44;;;;;;;8.43;5.10;;;18.90;99.90;;;;;;5001276;28;20054;-75
2023/05/15 09:58:22;;;;;;;6.28;4.50;;;18.90;99.90;;;;;;4944708;28;20061;-72
2023/05/15 10:01:14;;;;;;;7.55;4.40;;;19.10;99.90;;;;;;4972361;28;20046;-72
2023/05/15 10:04:02;;;;;;;10.43;4.10;;;18.90;99.90;;;;;;4975238;28;20061;-80
2023/05/15 10:06:44;;;;;;;5.82;3.88;;;18.60;99.90;;;;;;5010122;28;20052;-75
2023/05/15 10:09:20;;;;;;;11.63;4.57;;;18.90;99.90;;;;;;4961235;28;20055;-72
2023/05/15 10:11:53;;;;;;;12.25;4.60;;;19.30;99.90;;;;;;4977869;28;20054;-79
2023/05/15 10:14:29;;;;;;;6.55;3.80;;;19.50;99.90;;;;;;5009321;28;20060;-79
2023/05/15 10:17:11;;;;;;;9.70;5.20;;;19.60;99.90;;;;;;4986606;28;20078;-77
2023/05/15 10:19:43;;;;;;;7.25;4.18;;;19.70;99.90;;;;;;4968633;28;20087;-79
2023/05/15 10:22:29;;;;;;;7.82;4.70;;;19.50;99.90;;;;;;4985000;28;20079;-78
2023/05/15 10:25:02;;;;;;;6.10;3.90;;;19.50;99.90;;;;;;5028760;23;20413;-81
2023/05/15 10:27:41;;;;;;;8.27;5.13;;;19.40;99.90;;;;;;4988265;28;20070;-74
2023/05/15 10:30:21;;;;;;;7.22;3.88;;;19.50;99.90;;;;;;5005413;28;20038;-76
2023/05/15 10:32:54;;;;;;;7.15;3.78;;;19.40;99.90;;;;;;4988545;28;20054;-76
2023/05/15 10:35:25;;;;;;;10.27;3.72;;;19.40;99.90;;;;;;5014099;28;20050;-76
2023/05/15 10:38:13;;;;;;;6.70;3.33;;;19.40;99.90;;;;;;4976980;23;20275;-77
2023/05/15 10:40:55;;;;;;;6.07;3.63;;;19.20;99.90;;;;;;4937872;28;20081;-82
2023/05/15 10:44:00;;;;;;;7.20;3.60;;;19.30;99.90;;;;;;4964999;28;20054;-78
2023/05/15 10:46:44;;;;;;;5.35;3.58;;;19.20;99.90;;;;;;5004186;23;20534;-77
2023/05/15 10:49:38;;;;;;;7.18;3.38;;;19.10;99.90;;;;;;4969361;28;20065;-77
2023/05/15 10:52:15;;;;;;;12.73;4.38;;;19.00;99.90;;;;;;4976405;23;20143;-75
2023/05/15 10:54:57;;;;;;;8.02;3.40;;;18.80;99.90;;;;;;4947487;28;20051;-75
2023/05/15 10:57:39;;;;;;;7.53;3.70;;;19.00;99.90;;;;;;4944443;29;20084;-74
2023/05/15 11:00:43;;;;;;;8.80;3.70;;;19.00;99.90;;;;;;4963258;28;20122;-74
2023/05/15 11:04:19;;;;;;;5.63;3.47;;;18.80;99.90;;;;;;4943921;29;20052;-73
2023/05/15 11:07:40;;;;;;;6.13;3.08;;;18.80;99.90;;;;;;4951290;29;20119;-73
2023/05/15 11:10:44;;;;;;;8.57;3.15;;;18.80;99.90;;;;;;4965916;28;20051;-74
2023/05/15 11:14:16;;;;;;;5.82;3.10;;;18.80;99.90;;;;;;4918910;29;20062;-74
2023/05/15 11:17:15;;;;;;;5.45;3.00;;;18.70;99.90;;;;;;4945195;29;20055;-76
2023/05/15 11:19:59;;;;;;;9.98;3.40;;;19.30;99.90;;;;;;4939850;29;20073;-75
2023/05/15 11:22:38;;;;;;;10.60;3.70;;;19.50;99.20;;;;;;4934867;28;20039;-79
2023/05/15 11:25:55;;;;;;;6.05;3.22;;;19.40;99.30;;;;;;4955348;29;20099;-76
2023/05/15 11:29:23;;;;;;;11.00;3.47;;;19.50;99.50;;;;;;4949326;29;20050;-73
2023/05/15 11:32:46;;;;;;;4.82;3.25;;;19.70;98.20;;;;;;4938282;29;20066;-77
2023/05/15 11:36:06;;;;;;;5.50;3.03;;;19.90;97.80;;;;;;4949776;28;20051;-74
2023/05/15 11:39:08;;;;;;;9.73;3.70;;;19.90;97.30;;;;;;4961345;29;20032;-78
2023/05/15 11:41:41;;;;;;;7.38;3.47;;;19.80;98.20;;;;;;4921989;29;20051;-77
2023/05/15 11:44:20;;;;;;;4.82;2.92;;;19.80;97.90;;;;;;4960218;28;20058;-79
2023/05/15 11:47:27;;;;;;;7.53;3.22;;;19.80;97.70;;;;;;4966514;28;20388;-77
2023/05/15 11:50:24;;;;;;;9.20;3.40;;;19.50;98.40;;;;;;4949890;28;20054;-74
2023/05/15 11:53:18;;;;;;;9.55;5.20;;;20.00;98.50;;;;;;4944344;28;20054;-74
2023/05/15 11:57:22;;;;;;;7.47;3.15;;;20.60;97.60;;;;;;4948359;29;20139;-76
2023/05/15 12:00:47;;;;;;;4.97;3.00;;;20.60;97.40;;;;;;4923719;29;20048;-75
2023/05/15 12:03:40;;;;;;;9.20;3.42;;;21.00;97.50;;;;;;4938729;29;20051;-76
2023/05/15 12:06:48;;;;;;;8.20;3.60;;;21.10;97.40;;;;;;4902652;29;20068;-78
2023/05/15 12:10:00;;;;;;;4.80;3.00;;;21.30;97.30;;;;;;4933797;29;20059;-78
2023/05/15 12:13:23;;;;;;;7.82;2.90;;;21.40;96.60;;;;;;4930239;29;20108;-76
2023/05/15 12:15:55;;;;;;;8.77;3.60;;;20.70;97.70;;;;;;4934457;29;20453;-78
2023/05/15 12:18:28;;;;;;;8.07;3.22;;;20.80;96.90;;;;;;4937884;29;20705;-76
2023/05/15 12:21:17;;;;;;;8.23;3.45;;;21.30;96.60;;;;;;4903889;29;20092;-78
2023/05/15 12:24:02;;;;;;;5.67;3.20;;;21.70;96.60;;;;;;4917639;29;20124;-76
2023/05/15 12:26:47;;;;;;;8.18;3.53;;;21.80;96.30;;;;;;4928800;29;20051;-78
2023/05/15 12:29:47;;;;;;;5.30;2.90;;;21.80;95.90;;;;;;4909623;29;20056;-81
2023/05/15 12:32:44;;;;;;;5.47;3.35;;;22.10;94.70;;;;;;4910341;29;20044;-75
2023/05/15 12:35:23;;;;;;;18.52;5.00;;;22.00;95.40;;;;;;5107459;23;20070;-77
2023/05/15 12:38:21;;;;;;;;;;;;;;;;;;;;;
2023/05/15 12:41:28;;;;;;;6.30;3.30;;;21.90;95.30;;;;;;5010215;28;20052;-75
2023/05/15 12:44:43;;;;;;;7.90;3.33;;;22.00;95.90;;;;;;5029507;28;20037;-76
2023/05/15 12:47:59;;;;;;;7.50;3.30;;;22.50;95.70;;;;;;4995251;28;20057;-77
2023/05/15 12:54:00;;;;;;;8.40;3.00;;;22.30;93.70;;;;;;3084790;26;20043;-80
2023/05/15 12:57:06;;;;;;;5.07;2.90;;;22.10;93.60;;;;;;4949970;29;20076;-75
2023/05/15 13:00:01;;;;;;;7.88;3.10;;;21.80;94.70;;;;;;4965337;28;20067;-74
2023/05/15 13:02:51;;;;;;;7.10;2.95;;;22.10;94.40;;;;;;5063268;23;20454;-75
2023/05/15 13:06:11;;;;;;;16.58;4.72;;;22.10;93.90;;;;;;5006154;28;20060;-77
2023/05/15 13:08:55;;;;;;;7.80;3.10;;;21.80;93.60;;;;;;5011083;28;20053;-78
2023/05/15 13:11:43;;;;;;;5.55;3.20;;;21.20;95.30;;;;;;5005442;23;20038;-76
2023/05/15 13:14:37;;;;;;;6.53;3.30;;;21.20;94.10;;;;;;4973870;28;20051;-79
2023/05/15 13:17:17;;;;;;;8.85;3.90;;;21.00;95.70;;;;;;4945195;28;20290;-79
2023/05/15 13:20:30;;;;;;;8.98;2.65;;;20.90;96.10;;;;;;4962782;28;20082;-80
2023/05/15 13:24:04;;;;;;;5.00;3.20;;;20.80;95.30;;;;;;4967901;28;20055;-75
2023/05/15 13:26:51;;;;;;;8.60;3.70;;;20.70;95.70;;;;;;4957204;23;20053;-77
2023/05/15 13:29:44;;;;;;;4.97;3.22;;;20.40;96.80;;;;;;4960995;28;20046;-77
2023/05/15 13:32:36;;;;;;;14.52;4.28;;;20.50;96.30;;;;;;4950039;29;20047;-77
2023/05/15 13:35:13;;;;;;;7.57;3.30;;;20.40;96.20;;;;;;4982256;28;20117;-81
2023/05/15 13:37:42;;;;;;;9.45;3.95;;;20.40;96.80;;;;;;4985949;28;20043;-80
2023/05/15 13:40:38;;;;;;;;;;;;;;;;;;;;;
2023/05/15 13:43:24;;;;;;;7.70;3.43;;;20.40;96.50;;;;;;4974489;28;20054;-76
2023/05/15 13:46:03;;;;;;;10.32;3.78;;;20.50;96.80;;;;;;5001670;28;20129;-75
2023/05/15 13:52:46;;;;;;;6.07;3.50;;;20.50;97.60;;;;;;4968486;29;20059;-76
2023/05/15 14:01:55;;;;;;;5.38;3.40;;;20.40;97.30;;;;;;1326211;26;20066;-77
2023/05/15 14:05:39;;;;;;;9.57;3.75;;;20.40;97.70;;;;;;4984467;28;20086;-79
2023/05/15 14:09:04;;;;;;;5.43;3.25;;;20.30;97.80;;;;;;4957832;28;20043;-82
2023/05/15 14:12:25;;;;;;;6.57;3.30;;;20.30;97.70;;;;;;4976106;28;20139;-78
2023/05/15 14:15:10;;;;;;;4.78;3.42;;;20.20;97.40;;;;;;4991925;28;20110;-76
2023/05/15 14:26:04;;;;;;;11.25;3.45;;;20.30;98.80;;;;;;4970730;28;20511;-76
2023/05/15 14:29:55;;;;;;;;;;;;;;;;;;;;;